Time;durP1;ratioP1;P1;durP2;ratioP2;P2;SDS_P1;SDS_P2;PMS_P1;PMS_P2;Temp;Humidity;BMP_temperature;BMP_pressure;BME280_temperature;BME280_humidity;BME280_pressure;Samples;Min_cycle;Max_cycle;Signal;HPM_P1;HPM_P2
2021/07/31 00:01:16;;;;;;;11.77;11.27;;;17.60;99.90;;;;;;5111723;28;20446;-77
2021/07/31 00:03:42;;;;;;;12.00;11.30;;;17.50;99.90;;;;;;5111936;28;20448;-77
2021/07/31 00:06:09;;;;;;;14.80;13.50;;;17.50;99.90;;;;;;5111846;28;20473;-77
2021/07/31 00:08:36;;;;;;;12.23;11.73;;;17.50;99.90;;;;;;5111755;28;20976;-77
2021/07/31 00:11:04;;;;;;;12.60;12.10;;;17.40;99.90;;;;;;5111653;28;20468;-78
2021/07/31 00:13:31;;;;;;;14.10;13.27;;;17.40;99.90;;;;;;5112004;28;20450;-77
2021/07/31 00:15:58;;;;;;;12.07;11.57;;;17.30;99.90;;;;;;5111865;28;20452;-77
2021/07/31 00:18:24;;;;;;;11.83;11.43;;;17.40;99.90;;;;;;5111467;28;20439;-78
2021/07/31 00:20:51;;;;;;;12.40;11.80;;;17.40;99.90;;;;;;5112002;28;20844;-77
2021/07/31 00:23:18;;;;;;;11.90;11.50;;;17.40;99.90;;;;;;5111698;28;20467;-78
2021/07/31 00:25:44;;;;;;;13.67;12.90;;;17.40;99.90;;;;;;5114938;28;20453;-78
2021/07/31 00:28:13;;;;;;;12.07;11.57;;;17.40;99.90;;;;;;5115803;28;20525;-78
2021/07/31 00:30:39;;;;;;;12.20;11.70;;;17.40;99.90;;;;;;5115399;28;20445;-77
2021/07/31 00:33:06;;;;;;;12.40;11.90;;;17.40;99.90;;;;;;5115347;28;20452;-77
2021/07/31 00:35:32;;;;;;;11.60;11.20;;;17.50;99.90;;;;;;5115609;28;20816;-77
2021/07/31 00:37:59;;;;;;;12.03;11.43;;;17.50;99.90;;;;;;5115249;28;20842;-77
2021/07/31 00:40:26;;;;;;;11.90;11.37;;;17.50;99.90;;;;;;5115548;28;20476;-77
2021/07/31 00:42:53;;;;;;;12.27;11.67;;;17.60;99.90;;;;;;5115468;28;20460;-77
2021/07/31 00:45:21;;;;;;;12.17;11.67;;;17.70;99.90;;;;;;5115533;28;20444;-77
2021/07/31 00:47:48;;;;;;;12.37;11.87;;;17.70;99.90;;;;;;5115052;28;20437;-77
2021/07/31 00:50:16;;;;;;;11.93;11.53;;;17.70;99.90;;;;;;5115526;28;20457;-77
2021/07/31 00:52:44;;;;;;;12.13;11.50;;;17.70;99.90;;;;;;5115192;28;20819;-77
2021/07/31 00:55:12;;;;;;;12.30;11.70;;;17.70;99.90;;;;;;5115453;28;20445;-78
2021/07/31 00:57:41;;;;;;;12.97;12.07;;;17.70;99.90;;;;;;5115335;28;20596;-77
2021/07/31 01:00:09;;;;;;;11.83;11.13;;;17.70;99.90;;;;;;5115312;28;20472;-77
2021/07/31 01:02:37;;;;;;;11.80;11.37;;;17.70;99.90;;;;;;5115074;28;20437;-77
2021/07/31 01:05:04;;;;;;;12.20;11.60;;;17.80;99.90;;;;;;5114874;28;20448;-77
2021/07/31 01:07:31;;;;;;;12.77;12.00;;;17.80;99.90;;;;;;5116582;27;20807;-77
2021/07/31 01:09:58;;;;;;;11.90;11.50;;;17.80;99.90;;;;;;5116456;28;20472;-77
2021/07/31 01:12:25;;;;;;;12.77;12.17;;;17.80;99.90;;;;;;5115054;28;20451;-77
2021/07/31 01:14:52;;;;;;;12.00;11.40;;;17.80;99.90;;;;;;5114889;28;20448;-77
2021/07/31 01:17:18;;;;;;;12.57;11.43;;;17.80;99.90;;;;;;5114518;28;20477;-77
2021/07/31 01:19:46;;;;;;;12.17;11.57;;;17.70;99.90;;;;;;5114479;28;20473;-77
2021/07/31 01:22:14;;;;;;;11.50;11.00;;;17.60;99.90;;;;;;5114492;28;20828;-77
2021/07/31 01:24:41;;;;;;;11.37;10.87;;;17.60;99.90;;;;;;5114656;28;20448;-77
2021/07/31 01:27:08;;;;;;;12.73;11.97;;;17.50;99.90;;;;;;5114307;28;20444;-77
2021/07/31 01:29:34;;;;;;;12.80;12.10;;;17.50;99.90;;;;;;5114246;28;20473;-77
2021/07/31 01:32:01;;;;;;;13.10;12.20;;;17.40;99.90;;;;;;5114244;28;20444;-77
2021/07/31 01:34:28;;;;;;;13.57;12.77;;;17.30;99.90;;;;;;5114382;28;20951;-77
2021/07/31 01:36:54;;;;;;;12.27;11.43;;;17.30;99.90;;;;;;5113866;28;20832;-77
2021/07/31 01:39:22;;;;;;;12.77;12.13;;;17.40;99.90;;;;;;5114076;28;20466;-77
2021/07/31 01:41:49;;;;;;;12.57;11.87;;;17.40;99.90;;;;;;5114075;28;20453;-77
2021/07/31 01:44:16;;;;;;;11.80;11.30;;;17.40;99.90;;;;;;5114269;28;20468;-77
2021/07/31 01:46:43;;;;;;;12.07;11.47;;;17.40;99.90;;;;;;5113893;28;20460;-77
2021/07/31 01:49:10;;;;;;;10.97;10.67;;;17.50;99.90;;;;;;5114194;28;20465;-77
2021/07/31 01:51:36;;;;;;;12.17;11.30;;;17.50;99.90;;;;;;5113831;28;20454;-78
2021/07/31 01:54:03;;;;;;;12.50;11.90;;;17.50;99.90;;;;;;5114114;28;20456;-77
2021/07/31 01:56:31;;;;;;;11.80;11.40;;;17.50;99.90;;;;;;5113766;28;20441;-77
2021/07/31 01:58:58;;;;;;;12.00;11.60;;;17.50;99.90;;;;;;5113623;28;20464;-77
2021/07/31 02:01:25;;;;;;;12.40;11.80;;;17.50;99.90;;;;;;5113805;28;20438;-77
2021/07/31 02:03:51;;;;;;;12.23;11.73;;;17.50;99.90;;;;;;5113896;28;20445;-77
2021/07/31 02:06:18;;;;;;;12.67;12.17;;;17.50;99.90;;;;;;5113962;28;20463;-77
2021/07/31 02:08:45;;;;;;;12.07;11.40;;;17.60;99.90;;;;;;5113569;28;20462;-77
2021/07/31 02:11:12;;;;;;;12.90;12.00;;;17.60;99.90;;;;;;5113691;28;20458;-78
2021/07/31 02:13:41;;;;;;;13.17;12.50;;;17.60;99.90;;;;;;5113761;28;20449;-77
2021/07/31 02:16:07;;;;;;;12.87;12.17;;;17.60;99.90;;;;;;5113661;28;20952;-77
2021/07/31 02:18:34;;;;;;;12.53;11.73;;;17.60;99.90;;;;;;5113564;28;20858;-77
2021/07/31 02:21:01;;;;;;;12.57;11.87;;;17.60;99.90;;;;;;5113281;28;20441;-78
2021/07/31 02:23:27;;;;;;;13.17;12.57;;;17.60;99.90;;;;;;5113670;28;20437;-77
2021/07/31 02:25:54;;;;;;;12.43;11.83;;;17.50;99.90;;;;;;5113489;28;20539;-77
2021/07/31 02:28:21;;;;;;;12.70;11.83;;;17.50;99.90;;;;;;5113450;28;20815;-77
2021/07/31 02:30:49;;;;;;;12.17;11.53;;;17.50;99.90;;;;;;5113408;28;20452;-77
2021/07/31 02:33:15;;;;;;;12.10;11.50;;;17.50;99.90;;;;;;5113126;28;20445;-77
2021/07/31 02:35:42;;;;;;;13.60;12.83;;;17.50;99.90;;;;;;5114090;28;20976;-77
2021/07/31 02:38:09;;;;;;;13.43;12.83;;;17.50;99.90;;;;;;5114400;28;20485;-77
2021/07/31 02:40:35;;;;;;;12.87;12.10;;;17.40;99.90;;;;;;5114705;28;20461;-77
2021/07/31 02:43:02;;;;;;;12.60;11.90;;;17.40;99.90;;;;;;5113979;28;20445;-77
2021/07/31 02:45:29;;;;;;;12.77;12.17;;;17.50;99.90;;;;;;5114234;28;20441;-78
2021/07/31 02:47:57;;;;;;;12.40;11.80;;;17.50;99.90;;;;;;5113049;28;20468;-77
2021/07/31 02:50:23;;;;;;;12.80;11.90;;;17.50;99.90;;;;;;5113082;28;20461;-77
2021/07/31 02:52:50;;;;;;;12.90;11.93;;;17.50;99.90;;;;;;5113261;28;20441;-77
2021/07/31 02:55:17;;;;;;;12.20;11.60;;;17.60;99.90;;;;;;5113441;28;21044;-77
2021/07/31 02:57:43;;;;;;;12.80;11.93;;;17.50;99.90;;;;;;5114331;28;20991;-77
2021/07/31 03:00:11;;;;;;;12.80;12.00;;;17.50;99.90;;;;;;5114011;28;20473;-77
2021/07/31 03:02:38;;;;;;;12.37;11.73;;;17.50;99.90;;;;;;5113800;28;20452;-77
2021/07/31 03:05:07;;;;;;;12.77;12.10;;;17.50;99.90;;;;;;5112900;28;20441;-78
2021/07/31 03:07:35;;;;;;;12.97;12.23;;;17.50;99.90;;;;;;5112569;27;20438;-77
2021/07/31 03:10:01;;;;;;;12.57;11.90;;;17.50;99.90;;;;;;5112563;28;20472;-77
2021/07/31 03:12:28;;;;;;;12.63;12.03;;;17.40;99.90;;;;;;5112230;28;20441;-77
2021/07/31 03:14:56;;;;;;;12.50;11.90;;;17.40;99.90;;;;;;5113016;28;20457;-77
2021/07/31 03:17:22;;;;;;;12.60;12.10;;;17.40;99.90;;;;;;5113750;28;20476;-76
2021/07/31 03:19:49;;;;;;;13.43;12.63;;;17.40;99.90;;;;;;5127765;22;20869;-69
2021/07/31 03:22:17;;;;;;;12.70;12.00;;;17.50;99.90;;;;;;5091717;28;20434;-69
2021/07/31 03:24:44;;;;;;;13.77;12.80;;;17.40;99.90;;;;;;5091809;28;20454;-68
2021/07/31 03:27:11;;;;;;;12.97;12.37;;;17.30;99.90;;;;;;5092075;28;20438;-67
2021/07/31 03:29:38;;;;;;;12.70;12.20;;;17.20;99.90;;;;;;5091853;28;20454;-69
2021/07/31 03:32:06;;;;;;;12.70;12.20;;;17.20;99.90;;;;;;5091989;28;20439;-69
2021/07/31 03:34:33;;;;;;;12.40;11.90;;;17.20;99.90;;;;;;5091858;28;20944;-69
2021/07/31 03:37:01;;;;;;;12.30;11.77;;;17.20;99.90;;;;;;5091443;28;20442;-69
2021/07/31 03:39:29;;;;;;;12.70;12.00;;;17.20;99.90;;;;;;5091702;28;20996;-69
2021/07/31 03:41:56;;;;;;;12.33;11.63;;;17.20;99.90;;;;;;5091456;28;20442;-69
2021/07/31 03:44:23;;;;;;;12.80;12.20;;;17.30;99.90;;;;;;5091724;28;20499;-69
2021/07/31 03:46:50;;;;;;;13.00;12.50;;;17.30;99.90;;;;;;5091773;28;20862;-69
2021/07/31 03:49:17;;;;;;;13.83;12.93;;;17.30;99.90;;;;;;5091369;28;20462;-69
2021/07/31 03:51:44;;;;;;;13.07;12.57;;;17.30;99.90;;;;;;5091372;28;20443;-69
2021/07/31 03:54:10;;;;;;;13.50;12.80;;;17.30;99.90;;;;;;5091650;28;20443;-69
2021/07/31 03:56:38;;;;;;;13.60;12.80;;;17.30;99.90;;;;;;5091299;28;20458;-69
2021/07/31 03:59:05;;;;;;;13.93;12.90;;;17.30;99.90;;;;;;5091158;28;20858;-69
2021/07/31 04:01:32;;;;;;;13.93;13.23;;;17.20;99.90;;;;;;5091442;28;20473;-69
2021/07/31 04:03:59;;;;;;;13.80;13.00;;;17.20;99.90;;;;;;5091587;28;20446;-69
2021/07/31 04:06:25;;;;;;;13.20;12.60;;;17.30;99.90;;;;;;5091158;28;20442;-69
2021/07/31 04:08:52;;;;;;;13.67;12.87;;;17.20;99.90;;;;;;5091365;28;20439;-69
2021/07/31 04:11:19;;;;;;;14.37;13.77;;;17.20;99.90;;;;;;5091303;28;20446;-69
2021/07/31 04:13:47;;;;;;;14.17;13.57;;;17.30;99.90;;;;;;5091264;28;20449;-69
2021/07/31 04:16:13;;;;;;;14.10;13.60;;;17.30;99.90;;;;;;5091401;28;20458;-69
2021/07/31 04:18:40;;;;;;;14.83;14.03;;;17.30;99.90;;;;;;5090878;28;20478;-69
2021/07/31 04:21:07;;;;;;;15.50;14.40;;;17.30;99.90;;;;;;5091388;28;20683;-69
2021/07/31 04:23:35;;;;;;;14.20;13.53;;;17.30;99.90;;;;;;5091305;28;20468;-68
2021/07/31 04:26:13;;;;;;;14.23;13.60;;;17.30;99.90;;;;;;5091243;28;20446;-69
2021/07/31 04:28:40;;;;;;;14.23;13.70;;;17.10;99.90;;;;;;5091379;28;20442;-69
2021/07/31 04:31:12;;;;;;;15.13;14.47;;;17.10;99.90;;;;;;5090814;28;20451;-69
2021/07/31 04:33:39;;;;;;;14.87;14.07;;;17.10;99.90;;;;;;5091174;28;20446;-69
2021/07/31 04:36:07;;;;;;;15.77;14.60;;;17.10;99.90;;;;;;5091187;28;20805;-69
2021/07/31 04:38:34;;;;;;;15.53;14.83;;;17.20;99.90;;;;;;5091119;28;20549;-69
2021/07/31 04:41:01;;;;;;;14.33;13.77;;;17.30;99.90;;;;;;5090712;28;20449;-68
2021/07/31 04:43:28;;;;;;;14.17;13.67;;;17.30;99.90;;;;;;5091109;28;20442;-68
2021/07/31 04:45:55;;;;;;;14.93;14.10;;;17.50;99.90;;;;;;5091038;28;20450;-68
2021/07/31 04:48:23;;;;;;;15.50;14.53;;;17.40;99.90;;;;;;5091165;28;20801;-69
2021/07/31 04:51:00;;;;;;;16.20;14.70;;;17.50;99.90;;;;;;5091047;28;20470;-69
2021/07/31 04:53:28;;;;;;;14.93;14.13;;;17.50;99.90;;;;;;5090672;28;20450;-68
2021/07/31 04:55:55;;;;;;;14.60;14.00;;;17.50;99.90;;;;;;5090934;28;20473;-68
2021/07/31 04:58:22;;;;;;;14.77;14.00;;;17.50;99.90;;;;;;5090886;28;20478;-69
2021/07/31 05:00:49;;;;;;;14.30;13.60;;;17.50;99.90;;;;;;5090903;28;20458;-69
2021/07/31 05:03:16;;;;;;;14.60;13.70;;;17.50;99.90;;;;;;5090519;28;20438;-69
2021/07/31 05:05:45;;;;;;;14.37;13.77;;;17.50;99.90;;;;;;5090809;28;20453;-69
2021/07/31 05:08:12;;;;;;;14.93;14.20;;;17.50;99.90;;;;;;5090952;28;20443;-69
2021/07/31 05:10:40;;;;;;;14.60;13.90;;;17.50;99.90;;;;;;5091922;28;20829;-69
2021/07/31 05:13:07;;;;;;;14.63;13.93;;;17.60;99.90;;;;;;5094133;28;21268;-69
2021/07/31 05:15:35;;;;;;;15.03;14.23;;;17.60;99.90;;;;;;5094428;28;20454;-69
2021/07/31 05:18:02;;;;;;;14.80;14.10;;;17.60;99.90;;;;;;5094286;28;20481;-69
2021/07/31 05:20:29;;;;;;;14.40;13.60;;;17.60;99.90;;;;;;5094281;28;20859;-69
2021/07/31 05:22:57;;;;;;;16.20;15.60;;;17.60;99.90;;;;;;5094080;28;20805;-69
2021/07/31 05:25:23;;;;;;;15.57;14.63;;;17.60;99.90;;;;;;5094119;28;20453;-69
2021/07/31 05:27:50;;;;;;;14.57;13.87;;;17.60;99.90;;;;;;5094291;28;20439;-69
2021/07/31 05:30:17;;;;;;;15.30;14.50;;;17.60;99.90;;;;;;5094126;28;20470;-69
2021/07/31 05:32:44;;;;;;;14.93;14.33;;;17.60;99.90;;;;;;5094029;28;20450;-69
2021/07/31 05:35:11;;;;;;;14.73;14.13;;;17.60;99.90;;;;;;5093927;28;20450;-68
2021/07/31 05:37:38;;;;;;;15.27;14.43;;;17.70;99.90;;;;;;5093917;28;21039;-68
2021/07/31 05:40:07;;;;;;;15.33;14.20;;;17.70;99.90;;;;;;5093878;28;20828;-68
2021/07/31 05:42:34;;;;;;;14.03;13.43;;;17.70;99.90;;;;;;5093823;28;20828;-69
2021/07/31 05:45:03;;;;;;;14.93;14.20;;;17.80;99.90;;;;;;5094018;28;20500;-69
2021/07/31 05:47:30;;;;;;;14.73;14.03;;;17.90;99.90;;;;;;5093567;28;20455;-69
2021/07/31 05:49:58;;;;;;;15.40;14.43;;;18.00;99.90;;;;;;5093742;28;20466;-69
2021/07/31 05:52:26;;;;;;;15.13;14.23;;;17.90;99.90;;;;;;5093597;28;20445;-69
2021/07/31 05:54:53;;;;;;;15.80;15.00;;;18.10;99.90;;;;;;5093718;28;20925;-68
2021/07/31 05:57:21;;;;;;;13.93;13.43;;;18.30;99.90;;;;;;5093675;28;20450;-68
2021/07/31 05:59:48;;;;;;;14.87;14.17;;;18.30;99.90;;;;;;5093326;28;20482;-68
2021/07/31 06:02:15;;;;;;;14.80;14.10;;;18.40;99.90;;;;;;5093402;28;20817;-69
2021/07/31 06:04:42;;;;;;;14.47;13.87;;;18.60;99.90;;;;;;5093572;28;20809;-69
2021/07/31 06:07:10;;;;;;;14.60;13.90;;;18.70;99.90;;;;;;5093489;28;20814;-69
2021/07/31 06:09:38;;;;;;;14.93;14.33;;;18.60;99.90;;;;;;5093014;28;20466;-69
2021/07/31 06:12:06;;;;;;;15.60;14.80;;;18.60;99.90;;;;;;5093300;28;20446;-68
2021/07/31 06:14:36;;;;;;;15.00;14.40;;;18.80;99.90;;;;;;5093408;28;20442;-69
2021/07/31 06:17:03;;;;;;;14.87;14.17;;;18.80;99.90;;;;;;5093265;28;20806;-69
2021/07/31 06:19:30;;;;;;;14.77;14.07;;;18.90;99.90;;;;;;5092844;28;20485;-69
2021/07/31 06:21:57;;;;;;;14.60;13.90;;;19.00;99.90;;;;;;5092654;28;20845;-69
2021/07/31 06:24:24;;;;;;;14.80;14.20;;;19.30;99.90;;;;;;5093157;28;20458;-69
2021/07/31 06:26:51;;;;;;;14.80;14.03;;;19.30;99.90;;;;;;5093113;28;20453;-69
2021/07/31 06:29:18;;;;;;;14.63;13.93;;;19.30;99.90;;;;;;5092983;28;20454;-69
2021/07/31 06:31:46;;;;;;;14.77;13.97;;;19.20;99.90;;;;;;5092677;28;20937;-69
2021/07/31 06:34:13;;;;;;;15.53;14.83;;;19.20;99.90;;;;;;5092969;28;20972;-69
2021/07/31 06:36:42;;;;;;;14.57;13.77;;;19.30;99.90;;;;;;5093033;28;20450;-69
2021/07/31 06:39:09;;;;;;;15.37;14.33;;;19.20;99.90;;;;;;5092707;28;20478;-69
2021/07/31 06:41:36;;;;;;;16.63;15.73;;;19.20;99.90;;;;;;5092753;28;20438;-69
2021/07/31 06:44:02;;;;;;;16.20;15.57;;;19.10;99.90;;;;;;5092540;28;20906;-68
2021/07/31 06:46:29;;;;;;;14.70;13.83;;;18.90;99.90;;;;;;5092750;28;20449;-69
2021/07/31 06:48:59;;;;;;;14.20;13.50;;;18.80;99.90;;;;;;5092613;28;20462;-68
2021/07/31 06:51:26;;;;;;;16.23;15.43;;;18.70;99.90;;;;;;5092371;28;20828;-69
2021/07/31 06:53:53;;;;;;;15.10;14.37;;;18.80;99.90;;;;;;5092560;28;20445;-68
2021/07/31 06:56:20;;;;;;;14.70;14.07;;;19.00;99.90;;;;;;5092701;28;20445;-69
2021/07/31 06:58:46;;;;;;;17.17;15.80;;;19.20;99.90;;;;;;5092347;28;20820;-69
2021/07/31 07:01:15;;;;;;;15.43;14.40;;;19.20;99.90;;;;;;5091719;28;20520;-69
2021/07/31 07:03:43;;;;;;;15.20;14.33;;;19.10;99.90;;;;;;5092291;28;20442;-68
2021/07/31 07:06:11;;;;;;;15.20;14.40;;;19.10;99.90;;;;;;5092337;28;20446;-68
2021/07/31 07:08:38;;;;;;;15.27;14.57;;;19.10;99.90;;;;;;5092196;28;20438;-68
2021/07/31 07:11:05;;;;;;;16.27;15.17;;;19.10;99.90;;;;;;5092121;28;20792;-69
2021/07/31 07:13:32;;;;;;;16.33;14.87;;;19.00;99.90;;;;;;5091912;28;20447;-68
2021/07/31 07:15:59;;;;;;;15.67;14.83;;;19.20;99.90;;;;;;5092116;28;20446;-69
2021/07/31 07:18:25;;;;;;;15.53;14.47;;;19.50;99.90;;;;;;5092031;28;20499;-68
2021/07/31 07:20:52;;;;;;;14.60;13.90;;;19.70;99.90;;;;;;5091931;28;21109;-68
2021/07/31 07:23:20;;;;;;;15.40;14.23;;;19.80;99.90;;;;;;5091978;28;20443;-68
2021/07/31 07:25:47;;;;;;;14.70;14.20;;;19.90;99.90;;;;;;5091848;28;20451;-68
2021/07/31 07:28:13;;;;;;;15.30;14.37;;;19.90;99.90;;;;;;5091827;28;20489;-68
2021/07/31 07:30:40;;;;;;;15.20;14.40;;;19.90;99.90;;;;;;5092083;28;20821;-69
2021/07/31 07:33:07;;;;;;;15.20;14.37;;;19.80;99.90;;;;;;5091381;28;20442;-69
2021/07/31 07:35:33;;;;;;;15.27;14.50;;;19.90;99.90;;;;;;5091940;28;20453;-68
2021/07/31 07:38:00;;;;;;;15.40;14.67;;;20.00;99.90;;;;;;5091668;28;20449;-69
2021/07/31 07:40:28;;;;;;;15.23;14.53;;;20.10;99.90;;;;;;5091696;28;20485;-68
2021/07/31 07:42:55;;;;;;;15.53;14.80;;;19.90;99.90;;;;;;5091603;28;20439;-68
2021/07/31 07:45:21;;;;;;;15.30;14.63;;;20.10;99.90;;;;;;5091812;28;20443;-69
2021/07/31 07:47:48;;;;;;;15.83;14.80;;;20.00;99.90;;;;;;5091788;28;20442;-68
2021/07/31 07:50:15;;;;;;;14.50;14.00;;;20.00;99.90;;;;;;5091382;28;20458;-68
2021/07/31 07:52:41;;;;;;;16.30;15.10;;;20.30;99.90;;;;;;5091569;28;20804;-69
2021/07/31 07:55:08;;;;;;;15.90;15.10;;;20.40;99.90;;;;;;5091658;28;20558;-68
2021/07/31 07:57:39;;;;;;;15.43;14.50;;;20.40;99.90;;;;;;5091686;28;20441;-68
2021/07/31 08:00:07;;;;;;;15.40;14.43;;;20.90;99.90;;;;;;5091321;28;20482;-68
2021/07/31 08:02:34;;;;;;;15.13;14.20;;;20.80;99.90;;;;;;5091423;28;20438;-68
2021/07/31 08:05:01;;;;;;;14.73;14.13;;;20.70;99.90;;;;;;5091463;28;20438;-68
2021/07/31 08:07:28;;;;;;;15.00;13.83;;;20.90;99.90;;;;;;5091313;28;20847;-68
2021/07/31 08:09:55;;;;;;;16.00;15.33;;;20.90;99.90;;;;;;5091394;28;20883;-68
2021/07/31 08:12:21;;;;;;;15.30;14.27;;;21.00;99.90;;;;;;5091243;28;20478;-68
2021/07/31 08:14:50;;;;;;;15.43;14.50;;;21.30;99.90;;;;;;5091402;28;20461;-68
2021/07/31 08:17:17;;;;;;;15.30;14.43;;;21.80;99.90;;;;;;5091532;28;20460;-68
2021/07/31 08:19:44;;;;;;;15.17;14.50;;;21.70;99.90;;;;;;5090805;28;20486;-68
2021/07/31 08:22:10;;;;;;;14.90;14.30;;;21.60;99.90;;;;;;5091233;28;20449;-68
2021/07/31 08:24:37;;;;;;;15.03;14.40;;;21.60;99.90;;;;;;5091410;28;20447;-68
2021/07/31 08:27:04;;;;;;;15.50;14.80;;;21.50;99.10;;;;;;5091277;28;20438;-68
2021/07/31 08:29:31;;;;;;;15.20;14.53;;;21.30;99.50;;;;;;5091314;28;20469;-68
2021/07/31 08:31:59;;;;;;;15.03;14.33;;;21.30;99.60;;;;;;5090876;28;20447;-68
2021/07/31 08:34:25;;;;;;;15.43;14.93;;;21.60;99.50;;;;;;5091301;28;20445;-68
2021/07/31 08:36:52;;;;;;;15.80;14.30;;;21.80;98.40;;;;;;5091098;28;20446;-68
2021/07/31 08:39:19;;;;;;;15.20;14.47;;;21.60;98.20;;;;;;5091000;28;21023;-68
2021/07/31 08:41:47;;;;;;;15.40;14.80;;;21.70;97.80;;;;;;5090962;28;20803;-68
2021/07/31 08:44:13;;;;;;;15.20;14.60;;;21.60;98.40;;;;;;5091126;28;20499;-68
2021/07/31 08:46:44;;;;;;;14.97;14.40;;;21.50;98.90;;;;;;5094097;28;20438;-68
2021/07/31 08:49:18;;;;;;;16.00;15.30;;;21.60;98.90;;;;;;5094984;28;20481;-68
2021/07/31 08:51:46;;;;;;;15.37;14.47;;;21.60;99.40;;;;;;5094806;28;20445;-68
2021/07/31 08:54:13;;;;;;;16.03;15.23;;;21.50;99.40;;;;;;5094758;28;20457;-68
2021/07/31 08:56:42;;;;;;;15.90;15.00;;;21.60;98.20;;;;;;5094809;28;20450;-68
2021/07/31 08:59:08;;;;;;;16.20;15.43;;;21.60;98.20;;;;;;5094739;28;20478;-68
2021/07/31 09:01:35;;;;;;;15.53;14.80;;;21.50;98.40;;;;;;5094447;28;20442;-68
2021/07/31 09:04:11;;;;;;;14.97;14.30;;;21.30;98.50;;;;;;5094484;28;20446;-68
2021/07/31 09:06:39;;;;;;;15.93;14.87;;;21.00;99.30;;;;;;5094732;28;20857;-68
2021/07/31 09:09:06;;;;;;;15.87;15.07;;;21.00;99.90;;;;;;5094513;28;20461;-68
2021/07/31 09:11:33;;;;;;;15.73;14.90;;;21.40;99.50;;;;;;5094377;28;20486;-68
2021/07/31 09:14:11;;;;;;;14.90;14.40;;;21.90;98.50;;;;;;5094450;28;20446;-68
2021/07/31 09:16:37;;;;;;;15.60;14.90;;;22.10;98.40;;;;;;5094555;28;20445;-68
2021/07/31 09:19:05;;;;;;;14.93;14.43;;;21.70;98.00;;;;;;5138149;22;20482;-62
2021/07/31 09:21:32;;;;;;;14.60;13.90;;;21.60;99.00;;;;;;5114322;28;20545;-63
2021/07/31 09:24:00;;;;;;;16.23;14.90;;;21.50;99.30;;;;;;5094415;28;20446;-62
2021/07/31 09:26:33;;;;;;;15.80;15.00;;;21.70;99.40;;;;;;5094457;28;20529;-63
2021/07/31 09:29:02;;;;;;;15.33;14.63;;;21.90;99.20;;;;;;5094331;28;20472;-64
2021/07/31 09:31:30;;;;;;;15.83;15.13;;;22.00;98.60;;;;;;5107178;28;20449;-62
2021/07/31 09:33:58;;;;;;;14.87;14.13;;;22.00;98.30;;;;;;5114516;28;20442;-64
2021/07/31 09:36:37;;;;;;;15.10;14.30;;;21.70;97.70;;;;;;5114587;28;20445;-62
2021/07/31 09:39:06;;;;;;;15.93;15.23;;;21.60;98.70;;;;;;5114338;28;20516;-64
2021/07/31 09:41:36;;;;;;;14.37;13.97;;;21.60;99.10;;;;;;5114303;28;20815;-64
2021/07/31 09:44:06;;;;;;;14.57;13.97;;;21.80;97.90;;;;;;5114069;28;20449;-61
2021/07/31 09:46:34;;;;;;;14.40;13.80;;;21.70;97.80;;;;;;5114339;28;20445;-62
2021/07/31 09:49:02;;;;;;;14.60;14.00;;;21.70;97.40;;;;;;5114255;28;20452;-62
2021/07/31 09:51:33;;;;;;;14.70;14.20;;;22.10;96.90;;;;;;5114172;28;20544;-64
2021/07/31 09:54:02;;;;;;;15.97;15.27;;;22.40;96.50;;;;;;5113957;28;20899;-62
2021/07/31 09:56:32;;;;;;;16.13;15.30;;;22.30;95.80;;;;;;5113724;28;20477;-63
2021/07/31 09:59:00;;;;;;;15.23;14.73;;;22.40;96.10;;;;;;5114265;28;20494;-63
2021/07/31 10:01:28;;;;;;;15.00;14.50;;;22.50;96.20;;;;;;5113985;28;20438;-63
2021/07/31 10:03:56;;;;;;;15.17;14.57;;;22.70;95.40;;;;;;5113920;28;20450;-64
2021/07/31 10:06:23;;;;;;;15.27;14.70;;;22.70;94.70;;;;;;5113821;28;20445;-64
2021/07/31 10:08:51;;;;;;;14.63;14.10;;;22.60;94.40;;;;;;5113760;28;20445;-64
2021/07/31 10:11:18;;;;;;;15.27;14.40;;;22.40;95.30;;;;;;5113726;28;20458;-64
2021/07/31 10:13:47;;;;;;;14.90;14.30;;;22.60;94.60;;;;;;5113767;28;20441;-63
2021/07/31 10:16:15;;;;;;;15.60;14.97;;;22.70;94.50;;;;;;5113707;28;20827;-63
2021/07/31 10:18:58;;;;;;;15.40;14.60;;;23.20;94.00;;;;;;5113529;28;20449;-63
2021/07/31 10:21:26;;;;;;;16.03;15.53;;;23.10;93.00;;;;;;5113629;28;20441;-63
2021/07/31 10:24:01;;;;;;;15.47;14.50;;;23.20;93.50;;;;;;5113523;28;20480;-63
2021/07/31 10:26:29;;;;;;;15.10;14.60;;;23.20;93.20;;;;;;5113638;28;20950;-64
2021/07/31 10:29:35;;;;;;;14.83;14.43;;;23.20;92.60;;;;;;5113402;28;20440;-63
2021/07/31 10:32:40;;;;;;;14.43;14.00;;;23.00;91.60;;;;;;5113124;28;20448;-62
2021/07/31 10:35:08;;;;;;;14.80;14.30;;;23.50;91.00;;;;;;5113308;28;20540;-61
2021/07/31 10:37:44;;;;;;;15.37;14.70;;;23.80;89.40;;;;;;5113303;28;20802;-63
2021/07/31 10:40:33;;;;;;;15.87;15.37;;;23.80;89.70;;;;;;5112737;28;20484;-62
2021/07/31 10:43:04;;;;;;;15.00;14.50;;;23.80;89.30;;;;;;5113153;28;20794;-62
2021/07/31 10:45:32;;;;;;;14.63;14.13;;;23.70;90.20;;;;;;5112883;28;20453;-62
2021/07/31 10:47:59;;;;;;;15.60;14.97;;;23.60;87.00;;;;;;5112149;28;20446;-64
2021/07/31 10:50:40;;;;;;;15.83;15.13;;;23.70;89.10;;;;;;5112502;28;20450;-64
2021/07/31 10:53:08;;;;;;;15.23;14.73;;;24.00;87.80;;;;;;5111847;28;20494;-63
2021/07/31 10:56:03;;;;;;;15.13;14.60;;;24.00;87.40;;;;;;5112935;28;20446;-62
2021/07/31 10:58:32;;;;;;;15.00;14.50;;;23.70;84.20;;;;;;5087810;28;20504;-62
2021/07/31 11:01:22;;;;;;;15.03;14.60;;;23.50;85.20;;;;;;5111948;28;20477;-62
2021/07/31 11:03:49;;;;;;;14.33;13.83;;;23.70;86.20;;;;;;5110402;28;21009;-64
2021/07/31 11:06:16;;;;;;;15.87;15.37;;;24.30;83.90;;;;;;5112052;28;20438;-63
2021/07/31 11:09:13;;;;;;;15.23;14.73;;;24.60;79.10;;;;;;5111705;28;20445;-64
2021/07/31 11:11:40;;;;;;;15.23;14.63;;;24.50;79.90;;;;;;5111693;28;20437;-64
2021/07/31 11:14:08;;;;;;;16.93;16.00;;;24.90;81.80;;;;;;5112214;28;20805;-64
2021/07/31 11:16:35;;;;;;;15.80;15.20;;;25.20;79.10;;;;;;5111825;28;20940;-62
2021/07/31 11:19:02;;;;;;;15.57;15.03;;;25.70;79.60;;;;;;5110873;28;20506;-63
2021/07/31 11:21:31;;;;;;;15.10;14.40;;;26.40;73.40;;;;;;5111420;28;20816;-64
2021/07/31 11:24:01;;;;;;;16.33;15.80;;;26.50;72.80;;;;;;5094613;28;20570;-64
2021/07/31 11:26:43;;;;;;;16.90;16.20;;;26.60;72.80;;;;;;5092101;28;20868;-64
2021/07/31 11:29:14;;;;;;;15.60;15.10;;;26.90;70.20;;;;;;5091722;28;20442;-63
2021/07/31 11:31:42;;;;;;;16.90;16.00;;;27.10;68.10;;;;;;5091528;28;20445;-61
2021/07/31 11:34:11;;;;;;;17.03;16.43;;;27.90;65.50;;;;;;5091497;28;20835;-63
2021/07/31 11:36:39;;;;;;;16.20;15.60;;;29.50;64.10;;;;;;5091713;28;20471;-64
2021/07/31 11:39:07;;;;;;;17.27;16.47;;;29.80;54.90;;;;;;5091098;28;20434;-64
2021/07/31 11:41:40;;;;;;;16.20;15.60;;;30.60;54.70;;;;;;5091342;28;20496;-64
2021/07/31 11:44:07;;;;;;;17.17;16.47;;;31.90;50.20;;;;;;5091197;28;20507;-64
2021/07/31 11:46:38;;;;;;;17.70;17.00;;;32.50;46.80;;;;;;5091679;28;20450;-65
2021/07/31 11:49:07;;;;;;;17.20;16.67;;;33.00;45.50;;;;;;5091214;28;20442;-66
2021/07/31 11:51:40;;;;;;;17.03;16.43;;;33.00;44.40;;;;;;5090887;28;20434;-66
2021/07/31 11:54:08;;;;;;;19.27;18.47;;;33.60;42.60;;;;;;5091174;28;20445;-66
2021/07/31 11:56:36;;;;;;;17.90;17.10;;;34.70;41.20;;;;;;5091381;28;20192;-65
2021/07/31 11:59:05;;;;;;;17.73;17.00;;;35.80;40.10;;;;;;5091164;28;20192;-66
2021/07/31 12:01:32;;;;;;;18.13;17.42;;;38.40;37.20;;;;;;5089882;28;20323;-66
2021/07/31 12:04:00;;;;;;;17.55;16.80;;;39.20;33.40;;;;;;5091233;28;20195;-66
2021/07/31 12:06:31;;;;;;;17.27;16.55;;;37.90;33.00;;;;;;5091269;28;20286;-65
2021/07/31 12:09:01;;;;;;;17.67;16.90;;;35.10;36.20;;;;;;5091080;28;20191;-65
2021/07/31 12:11:31;;;;;;;16.70;16.00;;;33.20;38.70;;;;;;5091081;28;20285;-64
2021/07/31 12:13:59;;;;;;;16.57;16.00;;;33.10;40.90;;;;;;5091246;28;20442;-64
2021/07/31 12:16:27;;;;;;;17.77;17.08;;;35.60;39.60;;;;;;5091019;28;20442;-65
2021/07/31 12:18:54;;;;;;;18.70;18.00;;;37.50;36.50;;;;;;5091377;28;20192;-64
2021/07/31 12:21:26;;;;;;;17.80;17.00;;;39.30;33.80;;;;;;5094884;28;20230;-64
2021/07/31 12:23:53;;;;;;;18.45;17.75;;;37.00;33.40;;;;;;5095109;28;20192;-64
2021/07/31 12:26:30;;;;;;;17.00;16.30;;;35.00;35.10;;;;;;5094519;28;20195;-64
2021/07/31 12:28:57;;;;;;;17.70;17.00;;;33.10;38.50;;;;;;5095112;28;20865;-65
2021/07/31 12:31:25;;;;;;;17.10;16.50;;;31.90;39.50;;;;;;5094552;28;20825;-66
2021/07/31 12:33:52;;;;;;;17.00;16.40;;;31.20;40.90;;;;;;5095193;28;20533;-64